createdAt,value
2023-02-12T00:00:09.182Z,52.80
2023-02-12T00:02:42.979Z,50.58
2023-02-12T00:05:10.811Z,63.00
2023-02-12T00:07:38.557Z,52.42
2023-02-12T00:10:06.801Z,50.97
2023-02-12T00:12:35.959Z,54.92
2023-02-12T00:15:03.754Z,52.85
2023-02-12T00:17:31.575Z,51.72
2023-02-12T00:19:59.437Z,49.17
2023-02-12T00:22:28.017Z,53.20
2023-02-12T00:24:55.897Z,47.20
2023-02-12T00:27:23.723Z,49.88
2023-02-12T00:29:52.829Z,51.80
2023-02-12T00:32:21.315Z,49.67
2023-02-12T00:34:49.786Z,46.42
2023-02-12T00:37:18.825Z,44.38
2023-02-12T00:39:46.942Z,46.50
2023-02-12T00:42:14.862Z,44.45
2023-02-12T00:44:42.789Z,45.42
2023-02-12T00:47:12.089Z,46.20
2023-02-12T00:49:40.084Z,49.03
2023-02-12T00:52:08.374Z,51.53
2023-02-12T00:54:36.155Z,48.50
2023-02-12T00:57:04.069Z,45.35
2023-02-12T00:59:32.066Z,48.30
2023-02-12T01:01:59.796Z,45.63
2023-02-12T01:04:28.952Z,46.50
2023-02-12T01:06:56.815Z,51.65
2023-02-12T01:09:24.878Z,50.60
2023-02-12T01:11:52.652Z,48.13
2023-02-12T01:14:20.462Z,50.05
2023-02-12T01:16:48.315Z,47.78
2023-02-12T01:19:16.396Z,47.65
2023-02-12T01:21:45.549Z,48.38
2023-02-12T01:24:13.471Z,46.45
2023-02-12T01:26:41.466Z,47.58
2023-02-12T01:29:09.336Z,44.95
2023-02-12T01:31:38.366Z,48.42
2023-02-12T01:34:07.452Z,46.25
2023-02-12T01:36:36.088Z,44.42
2023-02-12T01:39:06.458Z,43.92
2023-02-12T01:41:35.503Z,46.30
2023-02-12T01:44:07.531Z,46.42
2023-02-12T01:46:35.436Z,44.42
2023-02-12T01:49:04.005Z,41.17
2023-02-12T01:51:32.555Z,47.38
2023-02-12T01:54:02.820Z,43.45
2023-02-12T01:56:32.289Z,44.33
2023-02-12T01:59:00.111Z,49.88
2023-02-12T02:01:29.679Z,46.88
2023-02-12T02:04:00.763Z,46.78
2023-02-12T02:06:30.914Z,41.95
2023-02-12T02:09:01.844Z,48.33
2023-02-12T02:11:47.441Z,48.40
2023-02-12T02:14:35.030Z,48.88
2023-02-12T02:17:16.608Z,50.83
2023-02-12T02:19:51.579Z,51.92
2023-02-12T02:22:25.558Z,50.72
2023-02-12T02:25:01.685Z,58.88
2023-02-12T02:27:36.534Z,47.70
2023-02-12T02:30:13.769Z,58.55
2023-02-12T02:32:43.327Z,55.25
2023-02-12T02:35:12.900Z,49.85
2023-02-12T02:37:41.933Z,53.25
2023-02-12T02:40:12.471Z,50.20
2023-02-12T02:42:41.914Z,47.47
2023-02-12T02:45:12.511Z,41.75
2023-02-12T02:47:44.149Z,46.92
2023-02-12T02:50:13.501Z,41.80
2023-02-12T02:52:42.875Z,44.30
2023-02-12T02:55:12.176Z,45.38
2023-02-12T02:57:42.505Z,42.92
2023-02-12T03:00:14.374Z,44.03
2023-02-12T03:02:46.242Z,39.70
2023-02-12T03:05:16.189Z,40.13
2023-02-12T03:07:47.271Z,41.53
2023-02-12T03:10:17.623Z,37.35
2023-02-12T03:12:50.730Z,39.00
2023-02-12T03:15:21.277Z,41.03
2023-02-12T03:17:50.920Z,40.92
2023-02-12T03:20:21.466Z,41.17
2023-02-12T03:22:51.375Z,38.08
2023-02-12T03:25:20.164Z,42.25
2023-02-12T03:27:50.193Z,39.58
2023-02-12T03:30:18.162Z,43.10
2023-02-12T03:32:47.983Z,42.88
2023-02-12T03:35:18.505Z,37.13
2023-02-12T03:37:51.933Z,41.35
2023-02-12T03:40:21.628Z,41.30
2023-02-12T03:42:55.251Z,44.67
2023-02-12T03:45:28.406Z,40.43
2023-02-12T03:48:01.925Z,39.92
2023-02-12T03:50:34.397Z,40.03
2023-02-12T03:53:02.098Z,44.55
2023-02-12T03:55:31.163Z,43.15
2023-02-12T03:58:00.873Z,35.25
2023-02-12T04:00:28.723Z,39.58
2023-02-12T04:02:56.391Z,40.38
2023-02-12T04:05:25.242Z,43.33
2023-02-12T04:07:54.898Z,40.20
2023-02-12T04:10:23.850Z,37.65
2023-02-12T04:12:54.383Z,36.00
2023-02-12T04:15:38.693Z,43.58
2023-02-12T04:18:10.218Z,39.28
2023-02-12T04:20:43.021Z,53.28
2023-02-12T04:23:17.951Z,59.45
2023-02-12T04:25:52.868Z,50.03
2023-02-12T04:28:25.998Z,48.63
2023-02-12T04:30:56.998Z,49.70
2023-02-12T04:33:26.192Z,51.72
2023-02-12T04:35:57.182Z,49.03
2023-02-12T04:38:28.100Z,54.67
2023-02-12T04:40:56.105Z,60.70
2023-02-12T04:43:27.852Z,62.25
2023-02-12T04:45:56.050Z,55.03
2023-02-12T04:48:23.887Z,48.58
2023-02-12T04:50:51.613Z,52.78
2023-02-12T04:53:19.396Z,49.42
2023-02-12T04:55:50.626Z,44.67
2023-02-12T04:58:18.550Z,42.47
2023-02-12T05:00:46.314Z,40.70
2023-02-12T05:03:14.002Z,36.33
2023-02-12T05:05:41.800Z,40.35
2023-02-12T05:08:09.560Z,45.42
2023-02-12T05:10:37.267Z,43.80
2023-02-12T05:13:06.807Z,44.17
2023-02-12T05:15:34.538Z,44.92
2023-02-12T05:18:02.228Z,44.10
2023-02-12T05:20:30.533Z,43.85
2023-02-12T05:22:58.235Z,41.65
2023-02-12T05:25:25.897Z,45.97
2023-02-12T05:27:53.580Z,40.17
2023-02-12T05:30:22.716Z,42.58
2023-02-12T05:32:50.448Z,47.42
2023-02-12T05:35:18.234Z,39.00
2023-02-12T05:37:45.895Z,38.20
2023-02-12T05:40:14.324Z,39.13
2023-02-12T05:42:42.057Z,37.05
2023-02-12T05:45:10.151Z,40.75
2023-02-12T05:47:39.177Z,41.50
2023-02-12T05:50:07.639Z,42.10
2023-02-12T05:52:35.363Z,38.40
2023-02-12T05:55:03.044Z,42.55
2023-02-12T05:57:30.739Z,38.85
2023-02-12T05:59:58.520Z,36.38
2023-02-12T06:02:26.219Z,40.58
2023-02-12T06:04:55.353Z,40.70
2023-02-12T06:07:23.116Z,44.17
2023-02-12T06:09:50.795Z,39.72
2023-02-12T06:12:18.470Z,38.70
2023-02-12T06:14:46.168Z,41.83
2023-02-12T06:17:14.392Z,37.10
2023-02-12T06:19:42.082Z,40.03
2023-02-12T06:22:11.104Z,40.50
2023-02-12T06:24:38.788Z,40.53
2023-02-12T06:27:06.455Z,38.70
2023-02-12T06:29:34.197Z,39.78
2023-02-12T06:32:01.961Z,39.92
2023-02-12T06:34:29.740Z,40.90
2023-02-12T06:36:57.603Z,40.28
2023-02-12T06:39:26.623Z,46.58
2023-02-12T06:41:54.551Z,41.85
2023-02-12T06:44:22.312Z,41.38
2023-02-12T06:46:50.040Z,43.63
2023-02-12T06:49:17.785Z,40.78
2023-02-12T06:51:45.558Z,40.15
2023-02-12T06:54:13.777Z,48.53
2023-02-12T06:56:43.076Z,59.90
2023-02-12T06:59:13.405Z,60.90
2023-02-12T07:01:41.122Z,42.28
2023-02-12T07:04:09.217Z,39.35
2023-02-12T07:06:37.020Z,41.90
2023-02-12T07:09:05.228Z,38.08
2023-02-12T07:11:36.170Z,44.45
2023-02-12T07:14:07.629Z,36.20
2023-02-12T07:16:35.850Z,32.40
2023-02-12T07:19:03.618Z,40.75
2023-02-12T07:21:32.068Z,39.90
2023-02-12T07:23:59.852Z,42.92
2023-02-12T07:26:27.541Z,45.58
2023-02-12T07:28:55.226Z,41.90
2023-02-12T07:31:24.973Z,41.40
2023-02-12T07:33:54.647Z,40.78
2023-02-12T07:36:22.377Z,45.60
2023-02-12T07:38:50.205Z,45.08
2023-02-12T07:41:20.304Z,42.30
2023-02-12T07:43:49.750Z,43.55
2023-02-12T07:46:18.717Z,46.33
2023-02-12T07:48:48.349Z,49.10
2023-02-12T07:51:16.876Z,45.63
2023-02-12T07:53:44.557Z,43.88
2023-02-12T07:56:13.548Z,46.53
2023-02-12T07:58:42.622Z,51.63
2023-02-12T08:01:14.091Z,54.03
2023-02-12T08:03:41.894Z,59.25
2023-02-12T08:06:12.142Z,58.70
2023-02-12T08:08:39.981Z,59.83
2023-02-12T08:11:08.187Z,62.05
2023-02-12T08:13:36.053Z,68.25
2023-02-12T08:16:04.631Z,63.15
2023-02-12T08:18:32.518Z,57.92
2023-02-12T08:21:04.436Z,57.22
2023-02-12T08:23:33.792Z,52.67
2023-02-12T08:26:08.450Z,50.22
2023-02-12T08:31:04.631Z,48.30
2023-02-12T08:33:32.334Z,55.75
2023-02-12T08:36:03.987Z,56.28
2023-02-12T08:38:33.960Z,59.00
2023-02-12T08:41:02.375Z,53.67
2023-02-12T08:43:30.186Z,54.55
2023-02-12T08:46:02.571Z,50.22
2023-02-12T08:48:30.405Z,52.97
2023-02-12T08:50:58.176Z,53.40
2023-02-12T08:53:26.105Z,51.95
2023-02-12T08:55:55.765Z,55.67
2023-02-12T08:58:23.627Z,56.90
2023-02-12T09:00:51.533Z,58.17
2023-02-12T09:03:19.261Z,63.83
2023-02-12T09:05:47.479Z,61.42
2023-02-12T09:08:15.242Z,59.92
2023-02-12T09:10:43.362Z,60.10
2023-02-12T09:13:13.033Z,59.45
2023-02-12T09:15:43.284Z,55.97
2023-02-12T09:18:12.485Z,64.05
2023-02-12T09:20:41.581Z,56.50
2023-02-12T09:23:10.026Z,51.25
2023-02-12T09:25:40.252Z,46.53
2023-02-12T09:28:07.970Z,38.42
2023-02-12T09:30:37.418Z,28.13
2023-02-12T09:33:05.456Z,30.20
2023-02-12T09:35:35.254Z,29.23
2023-02-12T09:38:03.074Z,30.90
2023-02-12T09:40:34.723Z,30.85
2023-02-12T09:43:12.860Z,28.17
2023-02-12T09:45:45.082Z,24.48
2023-02-12T09:48:29.433Z,23.90
2023-02-12T09:50:58.622Z,29.67
2023-02-12T09:53:28.947Z,29.65
2023-02-12T09:55:57.173Z,31.48
2023-02-12T09:58:30.466Z,24.42
2023-02-12T10:00:59.972Z,24.85
2023-02-12T10:03:31.865Z,19.35
2023-02-12T10:06:02.781Z,19.50
2023-02-12T10:08:39.068Z,18.25
2023-02-12T10:11:21.843Z,18.08
2023-02-12T10:13:54.664Z,17.45
2023-02-12T10:16:31.276Z,13.95
2023-02-12T10:19:05.363Z,13.05
2023-02-12T10:21:39.759Z,15.32
2023-02-12T10:24:22.407Z,20.08
2023-02-12T10:26:51.135Z,16.40
2023-02-12T10:29:22.738Z,13.85
2023-02-12T10:31:54.326Z,15.05
2023-02-12T10:34:23.669Z,13.95
2023-02-12T10:36:52.790Z,16.60
2023-02-12T10:39:22.628Z,14.60
2023-02-12T10:41:54.174Z,9.48
2023-02-12T10:44:21.984Z,11.10
2023-02-12T10:46:49.785Z,11.48
2023-02-12T10:49:19.583Z,9.60
2023-02-12T10:51:58.113Z,10.75
2023-02-12T10:54:36.770Z,10.95
2023-02-12T10:57:09.606Z,11.50
2023-02-12T10:59:37.817Z,10.38
2023-02-12T11:02:06.559Z,8.88
2023-02-12T11:04:35.710Z,9.70
2023-02-12T11:07:04.872Z,9.13
2023-02-12T11:09:36.596Z,10.18
2023-02-12T11:12:05.145Z,9.75
2023-02-12T11:14:33.031Z,10.57
2023-02-12T11:17:01.477Z,9.43
2023-02-12T11:19:30.223Z,8.75
2023-02-12T11:22:07.841Z,8.68
2023-02-12T11:24:36.451Z,8.45
2023-02-12T11:27:14.444Z,7.90
2023-02-12T11:29:42.862Z,8.15
2023-02-12T11:32:16.209Z,7.35
2023-02-12T11:34:43.949Z,10.50
2023-02-12T11:37:16.445Z,9.13
2023-02-12T11:39:47.293Z,10.63
2023-02-12T11:42:17.056Z,13.90
2023-02-12T11:44:49.332Z,8.35
2023-02-12T11:47:18.550Z,6.88
2023-02-12T11:49:50.375Z,12.23
2023-02-12T11:52:21.746Z,6.65
2023-02-12T11:54:50.148Z,8.93
2023-02-12T11:57:36.092Z,9.40
2023-02-12T12:00:06.116Z,7.35
2023-02-12T12:02:38.109Z,7.03
2023-02-12T12:05:08.794Z,10.48
2023-02-12T12:07:40.113Z,9.65
2023-02-12T12:10:12.026Z,9.32
2023-02-12T12:12:41.138Z,8.30
2023-02-12T12:15:34.512Z,8.50
2023-02-12T12:18:22.367Z,9.15
2023-02-12T12:20:52.969Z,9.32
2023-02-12T12:23:26.424Z,7.88
2023-02-12T12:25:56.668Z,9.30
2023-02-12T12:28:29.280Z,10.35
2023-02-12T12:31:01.941Z,9.18
2023-02-12T12:33:37.009Z,8.80
2023-02-12T12:36:10.260Z,10.25
2023-02-12T12:38:44.903Z,9.55
2023-02-12T12:41:18.404Z,8.43
2023-02-12T12:43:51.169Z,8.73
2023-02-12T12:46:28.033Z,10.07
2023-02-12T12:49:05.665Z,10.55
2023-02-12T12:51:42.194Z,8.77
2023-02-12T12:54:19.388Z,16.63
2023-02-12T12:56:53.576Z,9.65
2023-02-12T12:59:42.500Z,9.63
2023-02-12T13:02:38.441Z,9.98
2023-02-12T13:05:20.958Z,16.42
2023-02-12T13:07:52.980Z,12.93
2023-02-12T13:10:27.085Z,12.32
2023-02-12T13:13:09.300Z,11.50
2023-02-12T13:15:40.489Z,11.70
2023-02-12T13:18:14.783Z,12.88
2023-02-12T13:20:47.451Z,11.75
2023-02-12T13:23:16.585Z,12.65
2023-02-12T13:25:49.973Z,12.15
2023-02-12T13:28:22.160Z,10.63
2023-02-12T13:30:51.249Z,13.90
2023-02-12T13:33:21.601Z,8.45
2023-02-12T13:35:50.757Z,10.48
2023-02-12T13:38:21.812Z,9.18
2023-02-12T13:40:52.296Z,9.93
2023-02-12T13:43:29.896Z,10.07
2023-02-12T13:46:02.509Z,9.65
2023-02-12T13:48:36.809Z,10.07
2023-02-12T13:51:08.837Z,10.20
2023-02-12T13:53:44.144Z,11.10
2023-02-12T13:56:18.536Z,14.07
2023-02-12T13:58:52.027Z,11.02
2023-02-12T14:01:41.866Z,14.00
2023-02-12T14:04:30.755Z,12.02
2023-02-12T14:07:01.363Z,12.27
2023-02-12T14:09:35.289Z,12.90
2023-02-12T14:12:06.709Z,13.70
2023-02-12T14:14:36.283Z,13.98
2023-02-12T14:17:22.713Z,13.68
2023-02-12T14:19:57.059Z,13.88
2023-02-12T14:22:43.796Z,12.13
2023-02-12T14:25:26.355Z,14.95
2023-02-12T14:27:56.628Z,11.55
2023-02-12T14:30:30.045Z,12.23
2023-02-12T14:33:19.763Z,13.27
2023-02-12T14:35:49.472Z,11.27
2023-02-12T14:38:46.918Z,12.52
2023-02-12T14:41:34.246Z,12.32
2023-02-12T14:44:22.816Z,13.82
2023-02-12T14:46:52.862Z,14.10
2023-02-12T14:49:22.391Z,11.68
2023-02-12T14:51:54.627Z,12.82
2023-02-12T14:54:27.808Z,12.07
2023-02-12T14:56:56.645Z,13.68
2023-02-12T14:59:25.922Z,13.40
2023-02-12T15:01:56.007Z,15.20
2023-02-12T15:04:26.540Z,12.43
2023-02-12T15:06:56.288Z,11.32
2023-02-12T15:09:27.638Z,10.32
2023-02-12T15:11:59.155Z,11.10
2023-02-12T15:14:28.568Z,10.95
2023-02-12T15:17:00.194Z,11.50
2023-02-12T15:19:35.738Z,11.40
2023-02-12T15:22:03.558Z,13.18
2023-02-12T15:24:31.874Z,19.67
2023-02-12T15:27:01.055Z,11.95
2023-02-12T15:29:30.672Z,11.93
2023-02-12T15:32:01.512Z,13.45
2023-02-12T15:34:31.378Z,11.95
2023-02-12T15:37:00.578Z,12.95
2023-02-12T15:39:28.884Z,16.02
2023-02-12T15:41:56.643Z,13.52
2023-02-12T15:44:26.074Z,14.50
2023-02-12T15:47:04.195Z,16.65
2023-02-12T15:49:33.557Z,16.05
2023-02-12T15:52:02.820Z,15.82
2023-02-12T15:54:30.735Z,15.07
2023-02-12T15:56:58.592Z,16.58
2023-02-12T15:59:29.298Z,19.45
2023-02-12T16:01:59.599Z,17.55
2023-02-12T16:04:30.987Z,18.23
2023-02-12T16:06:59.535Z,18.23
2023-02-12T16:09:30.343Z,18.42
2023-02-12T16:11:59.818Z,24.02
2023-02-12T16:14:28.746Z,19.67
2023-02-12T16:16:57.821Z,21.35
2023-02-12T16:19:26.481Z,27.92
2023-02-12T16:21:57.365Z,33.92
2023-02-12T16:24:30.054Z,40.55
2023-02-12T16:26:58.675Z,34.03
2023-02-12T16:29:26.951Z,28.73
2023-02-12T16:31:55.799Z,35.38
2023-02-12T16:34:34.680Z,33.05
2023-02-12T16:37:04.085Z,28.52
2023-02-12T16:40:11.377Z,26.88
2023-02-12T16:42:39.170Z,26.45
2023-02-12T16:45:34.597Z,31.52
2023-02-12T16:50:34.144Z,28.17
2023-02-12T16:53:04.022Z,28.02
2023-02-12T16:55:32.554Z,34.45
2023-02-12T16:58:00.824Z,33.85
2023-02-12T17:00:28.603Z,33.80
2023-02-12T17:02:56.465Z,32.60
2023-02-12T17:05:24.253Z,35.97
2023-02-12T17:07:52.072Z,69.00
2023-02-12T17:10:21.311Z,37.53
2023-02-12T17:12:49.961Z,36.33
2023-02-12T17:15:20.851Z,42.95
2023-02-12T17:17:48.618Z,37.85
2023-02-12T17:20:17.600Z,39.72
2023-02-12T17:22:50.009Z,37.08
2023-02-12T17:25:17.975Z,38.00
2023-02-12T17:27:47.387Z,40.45
2023-02-12T17:30:16.130Z,38.05
2023-02-12T17:32:44.076Z,42.90
2023-02-12T17:35:11.853Z,38.75
2023-02-12T17:37:40.455Z,46.47
2023-02-12T17:40:11.215Z,38.33
2023-02-12T17:42:39.015Z,40.67
2023-02-12T17:45:08.971Z,43.10
2023-02-12T17:47:39.918Z,43.03
2023-02-12T17:50:09.183Z,40.15
2023-02-12T17:52:37.441Z,43.88
2023-02-12T17:55:05.810Z,43.60
2023-02-12T17:57:34.647Z,42.63
2023-02-12T18:00:02.821Z,44.15
2023-02-12T18:02:40.055Z,52.67
2023-02-12T18:05:09.121Z,44.75
2023-02-12T18:07:37.409Z,48.35
2023-02-12T18:10:05.959Z,52.20
2023-02-12T18:12:34.404Z,46.92
2023-02-12T18:15:03.266Z,43.50
2023-02-12T18:17:32.685Z,46.38
2023-02-12T18:20:01.983Z,44.05
2023-02-12T18:22:29.924Z,41.05
2023-02-12T18:24:57.685Z,41.65
2023-02-12T18:27:25.638Z,41.20
2023-02-12T18:29:53.942Z,45.47
2023-02-12T18:32:21.958Z,45.28
2023-02-12T18:34:50.095Z,50.70
2023-02-12T18:37:19.587Z,47.17
2023-02-12T18:39:47.276Z,55.15
2023-02-12T18:42:15.202Z,57.00
2023-02-12T18:44:43.601Z,61.15
2023-02-12T18:47:11.291Z,64.15
2023-02-12T18:49:39.073Z,62.38
2023-02-12T18:52:06.860Z,65.65
2023-02-12T18:54:36.146Z,67.38
2023-02-12T18:57:03.894Z,67.72
2023-02-12T18:59:31.882Z,70.38
2023-02-12T19:02:00.278Z,74.18
2023-02-12T19:04:30.381Z,74.57
2023-02-12T19:06:58.293Z,93.70
2023-02-12T19:09:27.077Z,80.82
2023-02-12T19:11:56.981Z,86.88
2023-02-12T19:14:26.624Z,90.78
2023-02-12T19:16:54.877Z,93.95
2023-02-12T19:19:22.852Z,89.32
2023-02-12T19:21:51.081Z,95.65
2023-02-12T19:24:19.147Z,94.43
2023-02-12T19:26:47.247Z,107.40
2023-02-12T19:29:16.928Z,100.00
2023-02-12T19:31:46.081Z,102.18
2023-02-12T19:34:16.946Z,101.70
2023-02-12T19:36:44.956Z,107.60
2023-02-12T19:39:14.702Z,93.35
2023-02-12T19:41:43.212Z,110.43
2023-02-12T19:44:11.856Z,108.50
2023-02-12T19:46:41.085Z,101.60
2023-02-12T19:49:09.521Z,109.63
2023-02-12T19:51:39.520Z,112.85
2023-02-12T19:54:08.040Z,118.00
2023-02-12T19:56:36.201Z,110.47
2023-02-12T19:59:04.664Z,116.68
2023-02-12T20:01:32.519Z,114.38
2023-02-12T20:04:02.118Z,112.25
2023-02-12T20:06:31.267Z,111.57
2023-02-12T20:08:58.983Z,122.25
2023-02-12T20:11:28.757Z,128.38
2023-02-12T20:13:56.772Z,136.18
2023-02-12T20:16:25.656Z,140.90
2023-02-12T20:18:54.313Z,120.50
2023-02-12T20:21:24.468Z,138.32
2023-02-12T20:23:52.688Z,126.75
2023-02-12T20:26:20.676Z,127.70
2023-02-12T20:28:49.308Z,136.90
2023-02-12T20:31:18.251Z,135.88
2023-02-12T20:33:46.493Z,135.27
2023-02-12T20:36:14.632Z,129.20
2023-02-12T20:38:44.845Z,143.27
2023-02-12T20:41:12.833Z,139.35
2023-02-12T20:43:40.644Z,144.43
2023-02-12T20:46:09.114Z,150.00
2023-02-12T20:48:37.308Z,152.77
2023-02-12T20:51:05.623Z,139.73
2023-02-12T20:53:33.902Z,166.90
2023-02-12T20:56:03.906Z,177.95
2023-02-12T20:58:31.629Z,176.40
2023-02-12T21:01:08.977Z,161.25
2023-02-12T21:03:37.056Z,160.88
2023-02-12T21:06:05.312Z,174.80
2023-02-12T21:08:33.247Z,167.10
2023-02-12T21:11:01.894Z,176.82
2023-02-12T21:13:31.117Z,173.93
2023-02-12T21:16:06.589Z,167.82
2023-02-12T21:18:34.406Z,173.73
2023-02-12T21:21:02.688Z,179.45
2023-02-12T21:23:30.637Z,163.68
2023-02-12T21:26:02.783Z,156.10
2023-02-12T21:28:32.599Z,173.00
2023-02-12T21:31:06.183Z,161.07
2023-02-12T21:33:34.401Z,174.63
2023-02-12T21:36:03.770Z,192.65
2023-02-12T21:38:32.623Z,184.82
2023-02-12T21:41:06.748Z,178.05
2023-02-12T21:43:36.663Z,152.95
2023-02-12T21:46:05.074Z,143.95
2023-02-12T21:48:33.128Z,135.52
2023-02-12T21:51:01.126Z,140.23
2023-02-12T21:53:28.985Z,128.50
2023-02-12T21:55:56.976Z,141.63
2023-02-12T21:58:25.447Z,124.68
2023-02-12T22:00:54.873Z,132.98
2023-02-12T22:03:22.951Z,122.32
2023-02-12T22:05:50.804Z,130.18
2023-02-12T22:08:18.694Z,121.97
2023-02-12T22:10:46.518Z,116.03
2023-02-12T22:13:14.349Z,119.30
2023-02-12T22:15:42.495Z,118.90
2023-02-12T22:18:11.723Z,129.13
2023-02-12T22:20:39.877Z,140.52
2023-02-12T22:23:07.651Z,146.20
2023-02-12T22:25:35.430Z,135.23
2023-02-12T22:28:03.277Z,129.23
2023-02-12T22:30:31.087Z,175.27
2023-02-12T22:32:58.867Z,177.55
2023-02-12T22:35:27.964Z,145.73
2023-02-12T22:37:55.721Z,137.95
2023-02-12T22:40:23.491Z,173.38
2023-02-12T22:42:51.265Z,150.85
2023-02-12T22:45:19.124Z,127.35
2023-02-12T22:47:46.885Z,174.88
2023-02-12T22:50:14.682Z,168.10
2023-02-12T22:52:43.908Z,374.75
2023-02-12T22:55:11.799Z,132.63
2023-02-12T22:57:39.673Z,122.50
2023-02-12T23:00:08.393Z,167.75
2023-02-12T23:02:36.732Z,360.27
2023-02-12T23:05:04.550Z,196.55
2023-02-12T23:07:32.328Z,183.63
2023-02-12T23:10:01.566Z,165.15
2023-02-12T23:12:29.705Z,165.98
2023-02-12T23:14:57.451Z,195.77
2023-02-12T23:17:25.327Z,208.55
2023-02-12T23:19:53.088Z,215.93
2023-02-12T23:22:20.935Z,158.70
2023-02-12T23:24:50.054Z,145.02
2023-02-12T23:27:20.125Z,156.60
2023-02-12T23:29:48.130Z,159.73
2023-02-12T23:32:15.917Z,145.65
2023-02-12T23:34:43.818Z,133.25
2023-02-12T23:37:11.692Z,123.30
2023-02-12T23:39:39.956Z,178.25
2023-02-12T23:42:07.722Z,133.38
2023-02-12T23:44:38.747Z,179.13
2023-02-12T23:47:06.538Z,181.35
2023-02-12T23:49:35.251Z,177.57
2023-02-12T23:52:03.014Z,255.32
2023-02-12T23:54:31.660Z,132.98
2023-02-12T23:56:59.486Z,189.13
2023-02-12T23:59:27.861Z,208.98
